LXJ01F LTFM-LGSK
Flight info
| Callsign | LXJ01F |
|---|---|
| Flight time | N/A |
| Altitude | 43000 |
| Route | BARPE UG12 GOLDO UM603 TSL/N0511F410 UL617 IBIDI |
| Aircraft | C750/M-SBDE3FGHRWXY/S |
Departure
| Time | 2026-05-01 15:03 |
|---|---|
| Airport | İstanbul Airport (LTFM) |
Arrival
| Time | N/A |
|---|---|
| Airport | Skiathos Island National Airport (LGSK) |
| Time | Latitude | Longitude | Altitude | Speed | Heading |
|---|---|---|---|---|---|
| 2026-05-01 14:52 | 41.27550 | 28.73362 | 326 ft | 0 kts | 179° |
| 2026-05-01 14:58 | 41.27551 | 28.73362 | 331 ft | 1 kts | 179° |
| 2026-05-01 14:58 | 41.27574 | 28.73362 | 327 ft | 4 kts | 182° |
| 2026-05-01 14:58 | 41.27596 | 28.73369 | 329 ft | 4 kts | 243° |
| 2026-05-01 14:59 | 41.27599 | 28.73394 | 329 ft | 4 kts | 269° |
| 2026-05-01 14:59 | 41.27599 | 28.73403 | 329 ft | 0 kts | 269° |
| 2026-05-01 15:00 | 41.27599 | 28.73384 | 328 ft | 4 kts | 268° |
| 2026-05-01 15:01 | 41.27598 | 28.73326 | 331 ft | 9 kts | 269° |
| 2026-05-01 15:01 | 41.27598 | 28.73225 | 331 ft | 13 kts | 270° |
| 2026-05-01 15:01 | 41.27595 | 28.73087 | 331 ft | 15 kts | 269° |
| 2026-05-01 15:01 | 41.27560 | 28.72975 | 331 ft | 14 kts | 193° |
| 2026-05-01 15:02 | 41.27467 | 28.72975 | 329 ft | 13 kts | 179° |
| 2026-05-01 15:02 | 41.27438 | 28.72965 | 331 ft | 13 kts | 212° |
| 2026-05-01 15:02 | 41.27504 | 28.72836 | 331 ft | 15 kts | 329° |
| 2026-05-01 15:02 | 41.27617 | 28.72764 | 331 ft | 24 kts | 344° |
| 2026-05-01 15:03 | 41.27985 | 28.72742 | 331 ft | 102 kts | 359° |
| 2026-05-01 15:03 | 41.28827 | 28.72715 | 676 ft | 134 kts | 6° |
| 2026-05-01 15:03 | 41.29797 | 28.72732 | 1385 ft | 145 kts | 6° |
| 2026-05-01 15:03 | 41.30846 | 28.72713 | 2201 ft | 153 kts | 3° |
| 2026-05-01 15:04 | 41.31895 | 28.72665 | 3106 ft | 152 kts | 4° |
| 2026-05-01 15:04 | 41.33039 | 28.72645 | 3601 ft | 177 kts | 4° |
| 2026-05-01 15:04 | 41.34376 | 28.72623 | 4010 ft | 207 kts | 3° |
| 2026-05-01 15:04 | 41.35831 | 28.72393 | 4981 ft | 216 kts | 347° |
| 2026-05-01 15:05 | 41.37120 | 28.71334 | 6013 ft | 229 kts | 323° |
| 2026-05-01 15:05 | 41.38044 | 28.69421 | 6499 ft | 270 kts | 293° |
| 2026-05-01 15:05 | 41.38203 | 28.66854 | 7425 ft | 279 kts | 273° |
| 2026-05-01 15:05 | 41.38134 | 28.64287 | 8690 ft | 278 kts | 271° |
| 2026-05-01 15:06 | 41.38091 | 28.61709 | 9856 ft | 279 kts | 271° |
| 2026-05-01 15:06 | 41.37911 | 28.59109 | 10597 ft | 293 kts | 256° |
| 2026-05-01 15:06 | 41.36878 | 28.56619 | 10672 ft | 324 kts | 235° |
| 2026-05-01 15:06 | 41.35857 | 28.53822 | 10825 ft | 345 kts | 252° |
| 2026-05-01 15:07 | 41.35092 | 28.50821 | 11820 ft | 341 kts | 251° |
| 2026-05-01 15:07 | 41.34274 | 28.47843 | 12648 ft | 345 kts | 250° |
| 2026-05-01 15:07 | 41.33432 | 28.44828 | 13463 ft | 348 kts | 251° |
| 2026-05-01 15:07 | 41.32615 | 28.41787 | 14256 ft | 351 kts | 251° |
| 2026-05-01 15:08 | 41.31800 | 28.38716 | 15001 ft | 353 kts | 251° |
| 2026-05-01 15:08 | 41.30975 | 28.35668 | 15726 ft | 355 kts | 251° |
| 2026-05-01 15:08 | 41.30131 | 28.32579 | 16492 ft | 357 kts | 251° |
| 2026-05-01 15:08 | 41.29284 | 28.29457 | 17268 ft | 359 kts | 251° |
| 2026-05-01 15:09 | 41.28432 | 28.26305 | 18011 ft | 363 kts | 251° |
| 2026-05-01 15:09 | 41.27569 | 28.23131 | 18746 ft | 367 kts | 251° |
| 2026-05-01 15:09 | 41.26696 | 28.19931 | 19446 ft | 369 kts | 251° |
| 2026-05-01 15:09 | 41.25816 | 28.16704 | 20143 ft | 373 kts | 251° |
| 2026-05-01 15:10 | 41.24930 | 28.13455 | 20862 ft | 376 kts | 251° |
| 2026-05-01 15:10 | 41.23138 | 28.06898 | 22241 ft | 383 kts | 251° |
| 2026-05-01 15:10 | 41.22222 | 28.03557 | 22920 ft | 387 kts | 251° |
| 2026-05-01 15:11 | 41.21298 | 28.00191 | 23597 ft | 390 kts | 251° |
| 2026-05-01 15:11 | 41.19416 | 27.93346 | 24758 ft | 397 kts | 251° |
| 2026-05-01 15:11 | 41.18464 | 27.89889 | 25327 ft | 400 kts | 251° |
| 2026-05-01 15:12 | 41.17502 | 27.86402 | 25935 ft | 403 kts | 251° |
| 2026-05-01 15:12 | 41.15555 | 27.79358 | 27120 ft | 409 kts | 250° |
| 2026-05-01 15:12 | 41.14569 | 27.75799 | 27735 ft | 412 kts | 250° |
| 2026-05-01 15:13 | 41.11570 | 27.65005 | 29543 ft | 422 kts | 250° |
| 2026-05-01 15:14 | 41.09516 | 27.57641 | 30656 ft | 429 kts | 250° |
| 2026-05-01 15:14 | 41.08477 | 27.53921 | 31143 ft | 432 kts | 251° |
| 2026-05-01 15:14 | 41.06400 | 27.46506 | 32548 ft | 427 kts | 251° |
| 2026-05-01 15:15 | 41.04331 | 27.39141 | 33960 ft | 424 kts | 251° |
| 2026-05-01 15:15 | 41.02364 | 27.32156 | 35059 ft | 423 kts | 251° |
| 2026-05-01 15:16 | 41.00314 | 27.24895 | 36129 ft | 423 kts | 251° |
| 2026-05-01 15:16 | 40.98242 | 27.17581 | 37199 ft | 424 kts | 251° |
| 2026-05-01 15:17 | 40.96515 | 27.11499 | 38127 ft | 425 kts | 251° |
| 2026-05-01 15:18 | 40.93104 | 26.99299 | 39772 ft | 425 kts | 255° |
| 2026-05-01 15:18 | 40.92655 | 26.96721 | 40044 ft | 425 kts | 261° |
| 2026-05-01 15:19 | 40.91884 | 26.85123 | 41350 ft | 424 kts | 266° |
| 2026-05-01 15:19 | 40.91423 | 26.77331 | 42186 ft | 425 kts | 266° |
| 2026-05-01 15:19 | 40.91197 | 26.73432 | 42604 ft | 425 kts | 266° |
| 2026-05-01 15:20 | 40.90730 | 26.65632 | 43216 ft | 430 kts | 266° |
| 2026-05-01 15:20 | 40.90491 | 26.61644 | 43207 ft | 439 kts | 266° |
| 2026-05-01 15:21 | 40.89997 | 26.53471 | 43212 ft | 456 kts | 266° |
| 2026-05-01 15:21 | 40.89475 | 26.44963 | 43213 ft | 470 kts | 265° |
| 2026-05-01 15:22 | 40.88660 | 26.31863 | 43218 ft | 479 kts | 265° |
| 2026-05-01 15:22 | 40.88056 | 26.23081 | 43212 ft | 480 kts | 263° |
| 2026-05-01 15:23 | 40.87204 | 26.14374 | 43203 ft | 480 kts | 263° |
| 2026-05-01 15:23 | 40.86367 | 26.05628 | 43205 ft | 480 kts | 263° |
| 2026-05-01 15:24 | 40.85509 | 25.96862 | 43221 ft | 481 kts | 263° |
| 2026-05-01 15:24 | 40.84481 | 25.88131 | 43214 ft | 481 kts | 262° |
| 2026-05-01 15:25 | 40.83434 | 25.79451 | 43209 ft | 481 kts | 262° |
| 2026-05-01 15:25 | 40.82368 | 25.70735 | 43215 ft | 481 kts | 262° |
| 2026-05-01 15:26 | 40.81299 | 25.62021 | 43206 ft | 481 kts | 262° |
| 2026-05-01 15:26 | 40.80218 | 25.53285 | 43204 ft | 480 kts | 261° |
| 2026-05-01 15:27 | 40.79140 | 25.44620 | 43205 ft | 481 kts | 261° |
| 2026-05-01 15:28 | 40.77499 | 25.31549 | 43206 ft | 482 kts | 261° |
| 2026-05-01 15:28 | 40.76396 | 25.22830 | 43204 ft | 481 kts | 261° |
| 2026-05-01 15:29 | 40.74726 | 25.09741 | 43217 ft | 482 kts | 261° |
| 2026-05-01 15:30 | 40.72483 | 24.92364 | 43214 ft | 482 kts | 261° |
| 2026-05-01 15:31 | 40.69060 | 24.66251 | 43209 ft | 482 kts | 261° |
| 2026-05-01 15:32 | 40.66747 | 24.48851 | 43213 ft | 482 kts | 261° |
| 2026-05-01 15:34 | 40.63234 | 24.22815 | 43204 ft | 482 kts | 261° |